createdAt,value
2018-10-11T00:00:55.632Z,21.80
2018-10-11T00:03:24.874Z,27.80
2018-10-11T00:05:53.599Z,20.33
2018-10-11T00:08:21.962Z,20.40
2018-10-11T00:14:22.212Z,24.77
2018-10-11T00:16:51.365Z,20.43
2018-10-11T00:19:20.368Z,22.30
2018-10-11T00:21:49.384Z,22.77
2018-10-11T00:24:17.964Z,21.17
2018-10-11T00:26:46.867Z,23.73
2018-10-11T00:29:15.799Z,22.87
2018-10-11T00:31:44.779Z,23.03
2018-10-11T00:34:13.554Z,25.37
2018-10-11T00:36:42.202Z,23.50
2018-10-11T00:39:11.083Z,22.60
2018-10-11T00:41:39.497Z,23.40
2018-10-11T00:44:08.358Z,22.03
2018-10-11T00:46:36.873Z,23.27
2018-10-11T00:49:05.803Z,29.70
2018-10-11T00:51:35.136Z,24.37
2018-10-11T00:54:03.813Z,21.50
2018-10-11T00:56:34.848Z,22.03
2018-10-11T00:59:03.479Z,21.20
2018-10-11T01:01:32.265Z,26.27
2018-10-11T01:04:00.690Z,22.93
2018-10-11T01:06:29.072Z,26.73
2018-10-11T01:08:57.430Z,24.70
2018-10-11T01:11:26.326Z,29.03
2018-10-11T01:13:57.547Z,24.50
2018-10-11T01:16:27.270Z,27.67
2018-10-11T01:18:59.056Z,26.03
2018-10-11T01:21:27.699Z,27.43
2018-10-11T01:23:56.313Z,26.37
2018-10-11T01:26:25.358Z,25.20
2018-10-11T01:28:54.245Z,23.87
2018-10-11T01:31:23.611Z,27.27
2018-10-11T01:33:53.657Z,24.97
2018-10-11T01:36:22.198Z,25.83
2018-10-11T01:38:52.256Z,28.60
2018-10-11T01:41:21.082Z,26.53
2018-10-11T01:43:50.446Z,29.80
2018-10-11T01:46:19.095Z,27.87
2018-10-11T01:48:47.495Z,23.77
2018-10-11T01:51:15.837Z,26.37
2018-10-11T01:53:44.236Z,25.03
2018-10-11T01:56:12.773Z,29.23
2018-10-11T01:58:41.265Z,35.47
2018-10-11T02:01:11.199Z,27.27
2018-10-11T02:03:39.580Z,26.50
2018-10-11T02:06:08.548Z,29.40
2018-10-11T02:08:37.168Z,26.47
2018-10-11T02:11:05.859Z,28.23
2018-10-11T02:13:37.032Z,27.43
2018-10-11T02:16:05.860Z,31.93
2018-10-11T02:18:34.838Z,28.93
2018-10-11T02:21:03.428Z,25.70
2018-10-11T02:23:31.947Z,27.13
2018-10-11T02:26:00.358Z,26.83
2018-10-11T02:28:28.816Z,28.77
2018-10-11T02:30:57.221Z,26.50
2018-10-11T02:33:25.628Z,27.27
2018-10-11T02:35:54.497Z,28.43
2018-10-11T02:38:24.089Z,26.40
2018-10-11T02:40:52.477Z,28.87
2018-10-11T02:43:21.888Z,29.70
2018-10-11T02:45:50.314Z,31.23
2018-10-11T02:48:18.657Z,27.00
2018-10-11T02:50:47.114Z,28.10
2018-10-11T02:53:16.353Z,28.83
2018-10-11T02:55:44.958Z,30.40
2018-10-11T02:58:25.747Z,27.30
2018-10-11T03:00:56.802Z,27.03
2018-10-11T03:03:28.641Z,26.70
2018-10-11T03:06:01.386Z,29.67
2018-10-11T03:08:29.995Z,28.63
2018-10-11T03:10:58.933Z,27.80
2018-10-11T03:13:27.543Z,28.70
2018-10-11T03:15:56.241Z,29.00
2018-10-11T03:18:25.892Z,28.20
2018-10-11T03:20:54.664Z,32.00
2018-10-11T03:23:23.184Z,30.67
2018-10-11T03:25:52.247Z,29.00
2018-10-11T03:28:21.157Z,29.00
2018-10-11T03:30:50.290Z,31.03
2018-10-11T03:33:19.841Z,30.43
2018-10-11T03:35:49.991Z,28.93
2018-10-11T03:38:18.563Z,29.73
2018-10-11T03:40:47.008Z,29.27
2018-10-11T03:43:15.345Z,28.60
2018-10-11T03:45:43.708Z,26.57
2018-10-11T03:48:12.170Z,30.90
2018-10-11T03:50:52.646Z,34.97
2018-10-11T03:53:21.782Z,30.90
2018-10-11T03:55:50.318Z,29.83
2018-10-11T03:58:26.364Z,28.63
2018-10-11T04:00:55.366Z,33.20
2018-10-11T04:03:26.251Z,30.77
2018-10-11T04:05:55.917Z,29.53
2018-10-11T04:08:24.762Z,33.60
2018-10-11T04:10:54.156Z,30.53
2018-10-11T04:13:23.299Z,29.40
2018-10-11T04:15:52.520Z,29.80
2018-10-11T04:18:21.573Z,28.90
2018-10-11T04:20:50.664Z,33.87
2018-10-11T04:23:27.101Z,29.57
2018-10-11T04:25:57.055Z,32.67
2018-10-11T04:28:26.530Z,31.63
2018-10-11T04:30:55.760Z,32.70
2018-10-11T04:33:24.385Z,31.03
2018-10-11T04:35:53.430Z,32.10
2018-10-11T04:38:22.335Z,30.40
2018-10-11T04:40:50.963Z,30.80
2018-10-11T04:43:19.895Z,27.37
2018-10-11T04:45:48.258Z,30.03
2018-10-11T04:48:17.063Z,30.83
2018-10-11T04:50:46.134Z,33.93
2018-10-11T04:53:15.391Z,35.87
2018-10-11T04:55:44.908Z,32.97
2018-10-11T04:58:13.521Z,34.87
2018-10-11T05:00:42.428Z,33.10
2018-10-11T05:03:12.929Z,37.53
2018-10-11T05:05:42.577Z,33.03
2018-10-11T05:08:11.540Z,27.20
2018-10-11T05:10:40.256Z,28.20
2018-10-11T05:13:09.303Z,33.10
2018-10-11T05:15:38.128Z,33.63
2018-10-11T05:18:07.377Z,31.63
2018-10-11T05:20:35.959Z,32.80
2018-10-11T05:23:04.770Z,30.33
2018-10-11T05:25:33.791Z,30.43
2018-10-11T05:28:02.159Z,30.23
2018-10-11T05:30:31.296Z,27.77
2018-10-11T05:32:59.787Z,27.30
2018-10-11T05:35:28.507Z,25.10
2018-10-11T05:37:57.054Z,29.30
2018-10-11T05:40:25.620Z,23.30
2018-10-11T05:42:54.301Z,13.37
2018-10-11T05:45:24.161Z,16.20
2018-10-11T05:47:52.695Z,10.40
2018-10-11T05:50:21.411Z,11.77
2018-10-11T05:52:50.222Z,10.20
2018-10-11T05:55:19.204Z,11.83
2018-10-11T05:57:47.985Z,9.20
2018-10-11T06:00:16.761Z,8.30
2018-10-11T06:02:58.111Z,8.07
2018-10-11T06:05:27.420Z,7.53
2018-10-11T06:07:56.373Z,9.53
2018-10-11T06:10:25.770Z,10.97
2018-10-11T06:12:54.389Z,7.80
2018-10-11T06:15:23.398Z,7.97
2018-10-11T06:17:54.076Z,7.87
2018-10-11T06:20:22.990Z,10.33
2018-10-11T06:22:51.866Z,7.90
2018-10-11T06:25:21.587Z,7.90
2018-10-11T06:27:51.646Z,7.20
2018-10-11T06:30:20.267Z,6.57
2018-10-11T06:32:49.458Z,6.07
2018-10-11T06:35:18.566Z,10.13
2018-10-11T06:37:48.247Z,8.17
2018-10-11T06:40:17.676Z,6.60
2018-10-11T06:42:46.868Z,5.83
2018-10-11T06:45:17.267Z,8.07
2018-10-11T06:47:48.877Z,8.83
2018-10-11T06:50:17.388Z,6.67
2018-10-11T06:52:46.368Z,6.97
2018-10-11T06:55:15.091Z,7.23
2018-10-11T06:57:43.764Z,9.07
2018-10-11T07:00:12.498Z,9.73
2018-10-11T07:02:41.071Z,14.20
2018-10-11T07:05:09.891Z,9.57
2018-10-11T07:07:38.620Z,8.63
2018-10-11T07:10:07.360Z,8.83
2018-10-11T07:12:36.096Z,9.40
2018-10-11T07:15:04.780Z,11.57
2018-10-11T07:17:33.341Z,11.87
2018-10-11T07:20:02.023Z,8.27
2018-10-11T07:22:30.874Z,12.20
2018-10-11T07:24:59.251Z,8.73
2018-10-11T07:27:27.731Z,11.10
2018-10-11T07:29:56.449Z,8.90
2018-10-11T07:32:25.351Z,8.73
2018-10-11T07:34:55.213Z,10.47
2018-10-11T07:37:23.751Z,9.93
2018-10-11T07:39:52.878Z,13.63
2018-10-11T07:42:21.410Z,10.10
2018-10-11T07:44:50.273Z,9.90
2018-10-11T07:47:18.855Z,10.60
2018-10-11T07:49:47.339Z,9.57
2018-10-11T07:52:15.912Z,10.13
2018-10-11T07:54:44.542Z,10.70
2018-10-11T07:57:13.410Z,10.00
2018-10-11T07:59:42.541Z,12.73
2018-10-11T08:02:11.426Z,11.00
2018-10-11T08:04:40.393Z,12.33
2018-10-11T08:07:09.165Z,11.10
2018-10-11T08:09:37.782Z,12.90
2018-10-11T08:12:06.972Z,10.60
2018-10-11T08:14:35.562Z,11.20
2018-10-11T08:17:04.727Z,11.40
2018-10-11T08:19:33.146Z,12.17
2018-10-11T08:22:01.539Z,10.03
2018-10-11T08:24:30.267Z,10.50
2018-10-11T08:26:59.040Z,11.70
2018-10-11T08:29:27.643Z,12.37
2018-10-11T08:31:56.397Z,11.50
2018-10-11T08:34:24.888Z,9.57
2018-10-11T08:36:53.888Z,11.63
2018-10-11T08:39:22.268Z,11.37
2018-10-11T08:41:51.157Z,13.07
2018-10-11T08:44:21.372Z,12.30
2018-10-11T08:46:50.040Z,11.10
2018-10-11T08:49:18.763Z,12.10
2018-10-11T08:51:47.207Z,14.07
2018-10-11T08:54:21.279Z,10.57
2018-10-11T08:56:50.611Z,10.77
2018-10-11T08:59:19.487Z,13.43
2018-10-11T09:01:48.224Z,10.40
2018-10-11T09:04:16.917Z,11.97
2018-10-11T09:06:45.391Z,12.50
2018-10-11T09:09:14.252Z,10.93
2018-10-11T09:11:42.729Z,12.30
2018-10-11T09:14:11.129Z,9.03
2018-10-11T09:16:39.597Z,7.67
2018-10-11T09:19:08.435Z,10.00
2018-10-11T09:21:36.947Z,9.60
2018-10-11T09:24:05.586Z,8.00
2018-10-11T09:26:34.043Z,7.70
2018-10-11T09:29:03.563Z,7.73
2018-10-11T09:31:32.208Z,9.97
2018-10-11T09:34:00.742Z,9.93
2018-10-11T09:36:29.480Z,9.27
2018-10-11T09:38:58.396Z,7.47
2018-10-11T09:41:27.175Z,6.03
2018-10-11T09:43:55.660Z,7.03
2018-10-11T09:46:24.211Z,7.03
2018-10-11T09:48:52.822Z,5.77
2018-10-11T09:51:21.441Z,7.20
2018-10-11T09:53:51.097Z,5.00
2018-10-11T09:56:19.549Z,5.10
2018-10-11T09:58:48.220Z,5.07
2018-10-11T10:01:21.916Z,5.20
2018-10-11T10:03:50.474Z,5.73
2018-10-11T10:06:19.223Z,8.10
2018-10-11T10:08:48.102Z,8.00
2018-10-11T10:11:16.697Z,6.77
2018-10-11T10:13:47.001Z,6.07
2018-10-11T10:16:16.379Z,5.67
2018-10-11T10:18:44.868Z,5.03
2018-10-11T10:21:13.400Z,3.90
2018-10-11T10:23:42.027Z,4.97
2018-10-11T10:26:10.504Z,3.40
2018-10-11T10:28:38.902Z,4.73
2018-10-11T10:31:07.732Z,4.43
2018-10-11T10:33:36.765Z,2.77
2018-10-11T10:36:05.262Z,3.17
2018-10-11T10:38:33.926Z,4.90
2018-10-11T10:41:02.515Z,2.53
2018-10-11T10:43:31.123Z,4.53
2018-10-11T10:45:59.747Z,3.03
2018-10-11T10:48:28.449Z,3.17
2018-10-11T10:50:56.959Z,2.40
2018-10-11T10:53:25.620Z,3.13
2018-10-11T10:55:54.974Z,4.63
2018-10-11T10:58:23.771Z,4.50
2018-10-11T11:01:04.103Z,2.60
2018-10-11T11:03:32.741Z,4.80
2018-10-11T11:06:01.341Z,3.80
2018-10-11T11:08:30.352Z,2.80
2018-10-11T11:10:59.121Z,2.67
2018-10-11T11:13:27.781Z,7.67
2018-10-11T11:15:56.218Z,2.00
2018-10-11T11:18:24.718Z,5.10
2018-10-11T11:20:53.566Z,2.43
2018-10-11T11:23:22.193Z,2.83
2018-10-11T11:25:50.622Z,3.40
2018-10-11T11:28:19.151Z,2.87
2018-10-11T11:30:49.416Z,3.37
2018-10-11T11:33:17.989Z,3.43
2018-10-11T11:35:46.521Z,5.33
2018-10-11T11:38:15.117Z,6.10
2018-10-11T11:40:43.665Z,4.70
2018-10-11T11:43:12.157Z,3.67
2018-10-11T11:45:40.678Z,4.47
2018-10-11T11:48:11.211Z,4.63
2018-10-11T11:50:39.970Z,5.53
2018-10-11T11:53:08.632Z,3.97
2018-10-11T11:55:37.668Z,3.97
2018-10-11T11:58:06.455Z,8.28
2018-10-11T12:00:42.489Z,3.67
2018-10-11T12:03:11.570Z,4.42
2018-10-11T12:05:40.336Z,3.20
2018-10-11T12:08:09.111Z,3.08
2018-10-11T12:10:37.702Z,3.75
2018-10-11T12:13:08.277Z,5.92
2018-10-11T12:15:38.471Z,3.80
2018-10-11T12:18:08.147Z,3.22
2018-10-11T12:20:38.229Z,2.40
2018-10-11T12:23:07.715Z,5.35
2018-10-11T12:25:36.776Z,3.55
2018-10-11T12:28:05.451Z,3.00
2018-10-11T12:30:34.008Z,2.10
2018-10-11T12:33:03.053Z,2.13
2018-10-11T12:35:31.973Z,2.40
2018-10-11T12:38:00.863Z,2.15
2018-10-11T12:40:29.990Z,5.15
2018-10-11T12:42:58.437Z,2.20
2018-10-11T12:45:27.184Z,3.10
2018-10-11T12:47:55.476Z,4.35
2018-10-11T12:50:24.809Z,5.83
2018-10-11T12:52:53.193Z,5.17
2018-10-11T12:55:21.989Z,4.53
2018-10-11T12:57:50.581Z,2.90
2018-10-11T13:00:20.132Z,2.67
2018-10-11T13:02:49.279Z,3.87
2018-10-11T13:05:17.742Z,2.75
2018-10-11T13:07:46.591Z,2.80
2018-10-11T13:10:15.264Z,2.70
2018-10-11T13:12:43.986Z,3.22
2018-10-11T13:15:13.084Z,2.75
2018-10-11T13:17:43.646Z,2.80
2018-10-11T13:20:10.633Z,4.70
2018-10-11T13:22:39.217Z,3.20
2018-10-11T13:25:07.795Z,3.60
2018-10-11T13:27:36.263Z,3.65
2018-10-11T13:30:05.261Z,2.42
2018-10-11T13:32:35.200Z,3.87
2018-10-11T13:35:03.717Z,3.70
2018-10-11T13:37:32.568Z,2.55
2018-10-11T13:40:00.934Z,4.05
2018-10-11T13:42:29.521Z,3.00
2018-10-11T13:44:58.262Z,3.58
2018-10-11T13:47:27.264Z,4.47
2018-10-11T13:49:55.978Z,5.20
2018-10-11T13:52:25.104Z,3.20
2018-10-11T13:54:53.972Z,4.62
2018-10-11T13:57:25.121Z,1.70
2018-10-11T13:59:51.471Z,2.17
2018-10-11T14:02:22.891Z,2.27
2018-10-11T14:05:13.616Z,2.00
2018-10-11T14:07:43.656Z,4.45
2018-10-11T14:10:12.941Z,1.87
2018-10-11T14:12:42.604Z,6.42
2018-10-11T14:15:11.944Z,3.25
2018-10-11T14:17:41.361Z,2.77
2018-10-11T14:20:11.080Z,1.80
2018-10-11T14:22:41.225Z,2.83
2018-10-11T14:25:09.980Z,4.72
2018-10-11T14:27:38.559Z,2.10
2018-10-11T14:30:07.016Z,2.17
2018-10-11T14:32:35.672Z,2.75
2018-10-11T14:35:06.236Z,4.58
2018-10-11T14:37:35.908Z,2.08
2018-10-11T14:40:04.816Z,2.65
2018-10-11T14:42:34.233Z,2.17
2018-10-11T14:45:02.711Z,1.80
2018-10-11T14:47:31.376Z,2.27
2018-10-11T14:49:59.889Z,3.92
2018-10-11T14:52:28.474Z,4.03
2018-10-11T14:54:56.952Z,2.77
2018-10-11T14:57:25.463Z,3.12
2018-10-11T14:59:54.434Z,3.98
2018-10-11T15:02:22.915Z,4.40
2018-10-11T15:04:52.271Z,4.10
2018-10-11T15:07:20.915Z,2.50
2018-10-11T15:09:50.136Z,1.70
2018-10-11T15:12:18.561Z,1.80
2018-10-11T15:14:47.343Z,3.53
2018-10-11T15:17:15.912Z,5.00
2018-10-11T15:19:44.891Z,2.90
2018-10-11T15:22:13.769Z,2.43
2018-10-11T15:24:42.734Z,4.03
2018-10-11T15:27:11.344Z,1.93
2018-10-11T15:29:40.767Z,3.17
2018-10-11T15:32:10.054Z,4.47
2018-10-11T15:34:39.534Z,2.70
2018-10-11T15:37:09.315Z,5.13
2018-10-11T15:39:38.325Z,15.50
2018-10-11T15:42:07.196Z,2.80
2018-10-11T15:44:35.731Z,1.73
2018-10-11T15:47:04.895Z,4.07
2018-10-11T15:49:34.153Z,2.30
2018-10-11T15:52:02.754Z,4.50
2018-10-11T15:54:32.243Z,2.07
2018-10-11T15:57:01.756Z,1.70
2018-10-11T15:59:31.068Z,1.83
2018-10-11T16:02:00.187Z,4.67
2018-10-11T16:04:29.550Z,3.97
2018-10-11T16:06:59.208Z,2.00
2018-10-11T16:09:28.523Z,4.10
2018-10-11T16:11:59.201Z,2.37
2018-10-11T16:14:28.815Z,2.23
2018-10-11T16:16:57.481Z,2.73
2018-10-11T16:19:26.624Z,2.97
2018-10-11T16:21:55.466Z,2.87
2018-10-11T16:24:25.049Z,2.27
2018-10-11T16:26:53.997Z,4.53
2018-10-11T16:29:22.888Z,4.37
2018-10-11T16:31:51.949Z,2.50
2018-10-11T16:34:22.757Z,3.90
2018-10-11T16:36:52.262Z,6.63
2018-10-11T16:39:20.780Z,2.30
2018-10-11T16:41:49.774Z,2.00
2018-10-11T16:44:18.855Z,2.57
2018-10-11T16:46:47.588Z,3.93
2018-10-11T16:49:16.715Z,10.80
2018-10-11T16:51:45.685Z,3.70
2018-10-11T16:54:14.943Z,5.67
2018-10-11T16:56:44.090Z,3.70
2018-10-11T16:59:12.864Z,4.03
2018-10-11T17:01:41.803Z,2.63
2018-10-11T17:04:11.309Z,4.17
2018-10-11T17:06:40.419Z,2.77
2018-10-11T17:09:11.265Z,2.77
2018-10-11T17:11:40.667Z,4.07
2018-10-11T17:14:10.154Z,4.87
2018-10-11T17:16:39.836Z,3.97
2018-10-11T17:19:08.823Z,4.33
2018-10-11T17:21:38.079Z,3.70
2018-10-11T17:24:06.984Z,5.53
2018-10-11T17:26:35.886Z,2.93
2018-10-11T17:29:04.462Z,6.10
2018-10-11T17:31:34.114Z,4.20
2018-10-11T17:34:03.615Z,3.87
2018-10-11T17:36:32.836Z,3.33
2018-10-11T17:39:02.457Z,5.93
2018-10-11T17:41:31.613Z,3.13
2018-10-11T17:44:00.371Z,4.80
2018-10-11T17:46:29.050Z,8.17
2018-10-11T17:48:58.468Z,6.23
2018-10-11T17:51:27.496Z,3.60
2018-10-11T17:53:56.671Z,3.13
2018-10-11T17:56:25.591Z,2.97
2018-10-11T17:58:56.277Z,3.03
2018-10-11T18:01:26.061Z,6.70
2018-10-11T18:03:57.261Z,6.63
2018-10-11T18:06:38.028Z,3.60
2018-10-11T18:09:23.595Z,4.27
2018-10-11T18:11:53.011Z,5.57
2018-10-11T18:14:21.843Z,4.47
2018-10-11T18:16:50.772Z,5.73
2018-10-11T18:19:19.715Z,3.07
2018-10-11T18:21:49.190Z,5.37
2018-10-11T18:24:18.451Z,3.87
2018-10-11T18:26:47.037Z,5.53
2018-10-11T18:29:16.162Z,4.20
2018-10-11T18:31:44.839Z,3.57
2018-10-11T18:34:13.542Z,2.93
2018-10-11T18:36:42.125Z,4.07
2018-10-11T18:39:13.025Z,3.23
2018-10-11T18:41:42.452Z,3.53
2018-10-11T18:44:11.677Z,5.47
2018-10-11T18:46:40.448Z,5.53
2018-10-11T18:49:09.498Z,5.10
2018-10-11T18:51:37.991Z,3.57
2018-10-11T18:54:06.689Z,4.33
2018-10-11T18:56:36.192Z,4.27
2018-10-11T18:59:06.828Z,3.93
2018-10-11T19:01:35.684Z,6.00
2018-10-11T19:04:04.967Z,4.23
2018-10-11T19:06:33.867Z,6.13
2018-10-11T19:09:02.198Z,5.20
2018-10-11T19:11:30.590Z,4.23
2018-10-11T19:13:59.038Z,4.83
2018-10-11T19:16:28.870Z,5.67
2018-10-11T19:18:57.855Z,4.53
2018-10-11T19:21:26.736Z,5.17
2018-10-11T19:23:55.712Z,5.33
2018-10-11T19:26:25.161Z,4.23
2018-10-11T19:28:54.482Z,3.20
2018-10-11T19:31:23.011Z,2.80
2018-10-11T19:33:51.608Z,2.83
2018-10-11T19:36:20.224Z,6.30
2018-10-11T19:38:49.064Z,3.43
2018-10-11T19:41:17.753Z,5.87
2018-10-11T19:43:46.475Z,4.07
2018-10-11T19:46:18.518Z,4.77
2018-10-11T19:48:52.012Z,2.90
2018-10-11T19:51:21.310Z,3.77
2018-10-11T19:53:54.523Z,4.20
2018-10-11T19:56:27.355Z,4.83
2018-10-11T19:58:57.268Z,5.07
2018-10-11T20:01:30.067Z,5.07
2018-10-11T20:04:01.559Z,3.93
2018-10-11T20:06:32.509Z,4.23
2018-10-11T20:09:06.774Z,6.43
2018-10-11T20:11:38.396Z,4.70
2018-10-11T20:14:07.473Z,5.17
2018-10-11T20:16:36.139Z,6.73
2018-10-11T20:19:04.796Z,6.13
2018-10-11T20:21:33.187Z,3.87
2018-10-11T20:24:02.189Z,3.93
2018-10-11T20:26:31.087Z,3.73
2018-10-11T20:29:00.512Z,5.40
2018-10-11T20:31:29.398Z,4.23
2018-10-11T20:33:58.327Z,4.83
2018-10-11T20:36:27.790Z,3.23
2018-10-11T20:38:56.534Z,3.87
2018-10-11T20:41:25.222Z,5.73
2018-10-11T20:43:53.914Z,3.53
2018-10-11T20:46:22.310Z,6.63
2018-10-11T20:48:51.051Z,4.63
2018-10-11T20:51:19.588Z,5.13
2018-10-11T20:53:49.234Z,4.80
2018-10-11T20:56:17.737Z,3.27
2018-10-11T20:58:46.671Z,3.70
2018-10-11T21:01:15.341Z,3.83
2018-10-11T21:03:43.876Z,5.13
2018-10-11T21:06:12.991Z,4.33
2018-10-11T21:08:41.766Z,4.60
2018-10-11T21:11:10.344Z,3.33
2018-10-11T21:13:38.822Z,3.83
2018-10-11T21:16:07.724Z,4.80
2018-10-11T21:18:36.417Z,4.57
2018-10-11T21:21:05.660Z,3.57
2018-10-11T21:23:34.814Z,3.33
2018-10-11T21:26:05.594Z,5.53
2018-10-11T21:28:35.160Z,4.00
2018-10-11T21:31:03.942Z,5.30
2018-10-11T21:33:33.435Z,4.77
2018-10-11T21:36:03.193Z,5.63
2018-10-11T21:38:31.776Z,4.43
2018-10-11T21:41:00.727Z,3.57
2018-10-11T21:43:30.125Z,5.77
2018-10-11T21:45:58.953Z,4.10
2018-10-11T21:48:28.409Z,6.13
2018-10-11T21:50:57.157Z,5.93
2018-10-11T21:53:26.075Z,4.73
2018-10-11T21:55:55.056Z,5.37
2018-10-11T21:58:24.127Z,4.87
2018-10-11T22:00:57.866Z,7.40
2018-10-11T22:03:31.013Z,5.80
2018-10-11T22:05:59.911Z,4.27
2018-10-11T22:08:28.651Z,4.70
2018-10-11T22:10:57.672Z,4.47
2018-10-11T22:13:26.997Z,4.90
2018-10-11T22:15:55.621Z,4.00
2018-10-11T22:18:24.457Z,4.87
2018-10-11T22:20:53.167Z,4.47
2018-10-11T22:23:22.038Z,4.03
2018-10-11T22:25:50.914Z,7.60
2018-10-11T22:28:19.391Z,5.80
2018-10-11T22:30:47.987Z,4.40
2018-10-11T22:33:16.375Z,4.77
2018-10-11T22:35:44.804Z,8.27
2018-10-11T22:38:13.657Z,7.57
2018-10-11T22:40:42.227Z,6.70
2018-10-11T22:43:16.822Z,6.87
2018-10-11T22:45:45.920Z,6.67
2018-10-11T22:48:14.330Z,6.00
2018-10-11T22:50:42.919Z,5.23
2018-10-11T22:53:11.299Z,5.47
2018-10-11T22:55:45.465Z,5.63
2018-10-11T22:58:14.449Z,11.63
2018-10-11T23:00:43.055Z,9.10
2018-10-11T23:03:11.608Z,6.97
2018-10-11T23:05:40.374Z,3.70
2018-10-11T23:08:08.743Z,7.50
2018-10-11T23:10:37.497Z,9.73
2018-10-11T23:13:12.784Z,8.57
2018-10-11T23:15:41.323Z,10.77
2018-10-11T23:18:10.272Z,0.20
2018-10-11T23:20:38.944Z,0.20
2018-10-11T23:23:08.000Z,0.27
2018-10-11T23:25:36.673Z,0.20
2018-10-11T23:28:05.532Z,0.30
2018-10-11T23:30:34.533Z,0.47
2018-10-11T23:33:03.021Z,0.20
2018-10-11T23:35:31.945Z,5.73
2018-10-11T23:38:00.487Z,0.20
2018-10-11T23:40:29.013Z,0.30
2018-10-11T23:42:57.431Z,0.20
2018-10-11T23:45:26.132Z,3.40
2018-10-11T23:47:55.433Z,0.20
2018-10-11T23:50:24.368Z,8.60
2018-10-11T23:52:52.873Z,0.20
2018-10-11T23:55:21.932Z,0.40
2018-10-11T23:57:51.052Z,0.20
